Time;durP1;ratioP1;P1;durP2;ratioP2;P2;SDS_P1;SDS_P2;PMS_P1;PMS_P2;Temp;Humidity;BMP_temperature;BMP_pressure;BME280_temperature;BME280_humidity;BME280_pressure;Samples;Min_cycle;Max_cycle;Signal;HPM_P1;HPM_P2
2023/08/21 00:00:52;;;;;;;7.80;7.00;;;26.10;99.90;;;;;;5031150;28;20195;-70
2023/08/21 00:03:18;;;;;;;8.20;7.17;;;26.10;99.90;;;;;;5031846;28;20172;-70
2023/08/21 00:05:44;;;;;;;8.77;7.10;;;26.10;99.90;;;;;;5031911;28;20560;-70
2023/08/21 00:08:09;;;;;;;7.37;6.67;;;26.10;99.90;;;;;;5032359;28;20183;-71
2023/08/21 00:10:37;;;;;;;7.23;6.63;;;26.10;99.90;;;;;;5032284;28;20168;-71
2023/08/21 00:13:03;;;;;;;7.47;6.77;;;26.20;99.90;;;;;;5032630;28;20657;-70
2023/08/21 00:15:28;;;;;;;7.90;6.73;;;26.20;99.90;;;;;;5032342;28;20417;-70
2023/08/21 00:17:54;;;;;;;8.10;7.30;;;26.20;99.90;;;;;;5030886;28;20642;-70
2023/08/21 00:20:20;;;;;;;8.23;6.93;;;26.10;99.90;;;;;;5031792;28;20576;-70
2023/08/21 00:22:45;;;;;;;7.63;6.93;;;26.20;99.90;;;;;;5032018;28;20242;-71
2023/08/21 00:25:11;;;;;;;9.20;6.53;;;26.30;99.90;;;;;;5012454;28;20718;-71
2023/08/21 00:27:36;;;;;;;7.53;6.30;;;26.40;99.90;;;;;;5021358;28;20176;-71
2023/08/21 00:30:02;;;;;;;8.50;6.60;;;26.40;99.90;;;;;;5032189;28;20299;-71
2023/08/21 00:32:27;;;;;;;7.70;7.03;;;26.20;99.90;;;;;;5032653;28;20220;-71
2023/08/21 00:34:53;;;;;;;7.70;7.00;;;26.10;99.90;;;;;;5031756;28;20200;-71
2023/08/21 00:37:19;;;;;;;7.47;6.77;;;26.00;99.90;;;;;;5032104;28;20186;-72
2023/08/21 00:39:45;;;;;;;8.07;7.27;;;26.10;99.90;;;;;;5031973;28;20670;-70
2023/08/21 00:42:10;;;;;;;9.10;7.10;;;26.10;99.90;;;;;;5032806;28;20405;-73
2023/08/21 00:44:36;;;;;;;8.03;7.17;;;26.20;99.90;;;;;;5032076;28;20187;-71
2023/08/21 00:47:01;;;;;;;10.30;7.20;;;26.20;99.90;;;;;;5035694;28;20646;-71
2023/08/21 00:49:27;;;;;;;9.03;7.27;;;26.10;99.90;;;;;;5035662;28;20183;-71
2023/08/21 00:51:53;;;;;;;7.87;7.27;;;25.90;99.90;;;;;;5035369;28;20168;-70
2023/08/21 00:54:19;;;;;;;7.87;7.07;;;25.90;99.90;;;;;;5035366;28;20222;-70
2023/08/21 00:56:45;;;;;;;8.37;7.57;;;25.90;99.90;;;;;;5035483;28;20434;-70
2023/08/21 00:59:12;;;;;;;9.80;7.00;;;25.90;99.90;;;;;;5035348;28;20473;-71
2023/08/21 01:01:38;;;;;;;7.57;6.90;;;25.80;99.90;;;;;;5035639;28;20176;-71
2023/08/21 01:04:03;;;;;;;8.20;7.40;;;25.90;99.90;;;;;;5034853;28;20912;-71
2023/08/21 01:06:29;;;;;;;7.73;7.03;;;25.90;99.90;;;;;;5035075;28;20171;-71
2023/08/21 01:09:16;;;;;;;8.67;7.90;;;25.70;99.90;;;;;;5035155;28;20177;-71
2023/08/21 01:11:57;;;;;;;10.47;7.37;;;25.50;99.90;;;;;;5035429;28;20156;-71
2023/08/21 01:14:33;;;;;;;9.00;7.77;;;25.50;99.90;;;;;;5035478;28;20418;-70
2023/08/21 01:17:05;;;;;;;7.90;7.30;;;25.50;99.90;;;;;;5034962;28;20391;-71
2023/08/21 01:19:40;;;;;;;9.57;7.33;;;25.50;99.90;;;;;;5034864;28;20882;-71
2023/08/21 01:22:06;;;;;;;8.13;7.43;;;25.60;99.90;;;;;;5034712;28;20493;-70
2023/08/21 01:24:33;;;;;;;7.43;6.70;;;25.50;99.90;;;;;;5034589;28;21003;-71
2023/08/21 01:26:58;;;;;;;8.07;7.37;;;25.40;99.90;;;;;;5034613;28;20238;-70
2023/08/21 01:29:24;;;;;;;8.70;7.80;;;25.50;99.90;;;;;;5034759;28;20402;-71
2023/08/21 01:32:06;;;;;;;8.93;8.07;;;25.50;99.90;;;;;;5034710;28;20179;-71
2023/08/21 01:34:34;;;;;;;8.90;8.03;;;25.40;99.90;;;;;;5034513;28;20187;-71
2023/08/21 01:37:00;;;;;;;8.53;7.73;;;25.40;99.90;;;;;;5033176;28;20406;-72
2023/08/21 01:39:27;;;;;;;9.90;8.40;;;25.30;99.90;;;;;;5034713;28;20486;-71
2023/08/21 01:41:52;;;;;;;8.07;7.33;;;25.30;99.90;;;;;;5034630;28;20425;-71
2023/08/21 01:44:18;;;;;;;8.07;7.47;;;25.30;99.90;;;;;;5034543;28;20406;-71
2023/08/21 01:46:43;;;;;;;8.43;7.37;;;25.30;99.90;;;;;;5034315;28;20197;-70
2023/08/21 01:49:09;;;;;;;8.57;7.83;;;25.20;99.90;;;;;;5034078;28;20265;-71
2023/08/21 01:51:34;;;;;;;8.43;7.30;;;25.10;99.90;;;;;;5034144;28;20171;-70
2023/08/21 01:54:00;;;;;;;7.70;6.93;;;25.10;99.90;;;;;;5034540;28;20167;-70
2023/08/21 01:56:26;;;;;;;8.60;7.77;;;25.10;99.90;;;;;;5034182;28;20182;-71
2023/08/21 01:58:51;;;;;;;8.37;7.57;;;25.10;99.90;;;;;;5034083;28;20218;-70
2023/08/21 02:01:18;;;;;;;8.07;7.27;;;25.10;99.90;;;;;;5033648;28;20180;-71
2023/08/21 02:03:44;;;;;;;8.30;7.57;;;25.00;99.90;;;;;;5034350;28;20175;-70
2023/08/21 02:06:10;;;;;;;8.33;7.50;;;25.00;99.90;;;;;;5033458;28;20426;-71
2023/08/21 02:08:35;;;;;;;7.57;6.97;;;24.90;99.90;;;;;;5033936;28;20781;-71
2023/08/21 02:11:01;;;;;;;8.30;7.50;;;25.00;99.90;;;;;;5034175;28;20175;-71
2023/08/21 02:13:27;;;;;;;8.13;7.00;;;25.00;99.90;;;;;;5033810;28;20170;-71
2023/08/21 02:15:52;;;;;;;8.30;7.50;;;25.00;99.90;;;;;;5033720;28;20189;-71
2023/08/21 02:18:18;;;;;;;7.73;7.03;;;25.00;99.90;;;;;;5033649;28;20661;-70
2023/08/21 02:20:43;;;;;;;7.27;6.60;;;25.00;99.90;;;;;;5031902;28;20220;-70
2023/08/21 02:23:09;;;;;;;7.60;6.87;;;25.00;99.90;;;;;;5032193;28;20190;-70
2023/08/21 02:25:35;;;;;;;7.23;6.10;;;25.10;99.90;;;;;;5033518;28;20261;-72
2023/08/21 02:28:01;;;;;;;6.97;6.37;;;25.20;99.90;;;;;;5033902;28;20251;-71
2023/08/21 02:30:28;;;;;;;7.37;6.67;;;25.30;99.90;;;;;;5033642;28;20176;-71
2023/08/21 02:32:54;;;;;;;7.47;6.77;;;25.30;99.90;;;;;;5033917;28;20405;-71
2023/08/21 02:35:20;;;;;;;8.73;7.90;;;25.30;99.90;;;;;;5032862;28;20422;-71
2023/08/21 02:37:46;;;;;;;7.53;6.73;;;25.20;99.90;;;;;;5033599;28;20406;-71
2023/08/21 02:40:12;;;;;;;8.63;7.17;;;25.20;99.90;;;;;;5033553;28;20449;-71
2023/08/21 02:42:37;;;;;;;7.70;6.53;;;25.20;99.90;;;;;;5033625;28;20172;-71
2023/08/21 02:45:03;;;;;;;8.43;7.63;;;25.10;99.90;;;;;;5033216;28;20183;-71
2023/08/21 02:47:29;;;;;;;7.97;7.00;;;25.00;99.90;;;;;;5034581;28;20202;-72
2023/08/21 02:49:55;;;;;;;8.50;7.80;;;24.80;99.90;;;;;;5033429;28;20406;-72
2023/08/21 02:52:21;;;;;;;8.10;7.40;;;24.80;99.90;;;;;;5033211;28;20920;-71
2023/08/21 02:54:46;;;;;;;7.90;7.20;;;24.90;99.90;;;;;;5033429;28;20199;-71
2023/08/21 02:57:12;;;;;;;8.07;7.27;;;24.90;99.90;;;;;;5033082;28;20178;-71
2023/08/21 02:59:37;;;;;;;9.07;8.20;;;24.80;99.90;;;;;;5033065;28;20206;-72
2023/08/21 03:02:03;;;;;;;8.60;7.37;;;24.80;99.90;;;;;;5033726;28;20167;-71
2023/08/21 03:04:28;;;;;;;7.10;6.40;;;24.80;99.90;;;;;;5033096;28;20624;-71
2023/08/21 03:06:54;;;;;;;8.73;7.90;;;24.80;99.90;;;;;;5032609;28;20175;-71
2023/08/21 03:09:19;;;;;;;7.60;6.90;;;24.80;99.90;;;;;;5032239;28;20167;-72
2023/08/21 03:11:45;;;;;;;8.27;7.47;;;24.70;99.90;;;;;;5033114;28;20178;-70
2023/08/21 03:14:10;;;;;;;8.43;7.00;;;24.70;99.90;;;;;;5032822;28;20167;-72
2023/08/21 03:16:36;;;;;;;8.90;8.10;;;24.70;99.90;;;;;;5032946;28;20183;-72
2023/08/21 03:19:02;;;;;;;7.87;7.17;;;24.60;99.90;;;;;;5032906;28;20175;-71
2023/08/21 03:21:28;;;;;;;9.23;8.10;;;24.50;99.90;;;;;;5032795;28;20517;-71
2023/08/21 03:23:59;;;;;;;8.80;8.10;;;24.50;99.90;;;;;;5033120;28;20185;-72
2023/08/21 03:26:25;;;;;;;7.90;7.10;;;24.40;99.90;;;;;;5032751;28;20537;-71
2023/08/21 03:28:51;;;;;;;7.87;7.23;;;24.50;99.90;;;;;;5032874;28;21064;-72
2023/08/21 03:31:17;;;;;;;7.43;6.73;;;24.50;99.90;;;;;;5033095;28;20398;-72
2023/08/21 03:33:43;;;;;;;9.57;7.83;;;24.60;99.90;;;;;;5032743;28;20426;-72
2023/08/21 03:36:08;;;;;;;8.63;7.80;;;24.60;99.90;;;;;;5032441;28;20613;-71
2023/08/21 03:38:34;;;;;;;8.10;7.40;;;24.60;99.90;;;;;;5033049;28;20577;-72
2023/08/21 03:41:00;;;;;;;9.27;7.83;;;24.60;99.90;;;;;;5032859;28;20705;-72
2023/08/21 03:43:26;;;;;;;10.13;7.93;;;24.50;99.90;;;;;;5032919;28;20167;-70
2023/08/21 03:45:51;;;;;;;7.70;7.00;;;24.50;99.90;;;;;;5032349;28;20552;-69
2023/08/21 03:48:17;;;;;;;7.63;6.90;;;24.50;99.90;;;;;;5032299;28;20164;-69
2023/08/21 03:50:43;;;;;;;7.90;7.10;;;24.50;99.90;;;;;;5032011;28;20163;-70
2023/08/21 03:53:08;;;;;;;7.93;7.13;;;24.60;99.90;;;;;;5032637;28;20504;-70
2023/08/21 03:55:34;;;;;;;8.80;7.90;;;24.60;99.90;;;;;;5032438;28;20194;-70
2023/08/21 03:58:00;;;;;;;7.17;6.57;;;24.60;99.90;;;;;;5030975;28;20240;-71
2023/08/21 04:00:25;;;;;;;9.00;7.70;;;24.60;99.90;;;;;;5032107;28;20195;-71
2023/08/21 04:02:51;;;;;;;7.90;7.17;;;24.60;99.90;;;;;;5031502;28;20412;-71
2023/08/21 04:05:17;;;;;;;7.60;6.90;;;24.60;99.90;;;;;;5032267;28;20279;-71
2023/08/21 04:07:42;;;;;;;8.53;7.73;;;24.60;99.90;;;;;;5032395;28;20163;-71
2023/08/21 04:10:08;;;;;;;7.80;7.10;;;24.60;99.90;;;;;;5032585;28;20246;-71
2023/08/21 04:12:33;;;;;;;7.90;7.10;;;24.50;99.90;;;;;;5032437;28;20258;-71
2023/08/21 04:14:59;;;;;;;8.50;7.70;;;24.50;99.90;;;;;;5032048;28;20534;-70
2023/08/21 04:17:25;;;;;;;9.40;7.90;;;24.40;99.90;;;;;;5032509;28;20608;-70
2023/08/21 04:19:51;;;;;;;8.23;7.30;;;24.30;99.90;;;;;;5034188;28;20964;-71
2023/08/21 04:22:16;;;;;;;9.27;8.33;;;24.30;99.90;;;;;;5035714;28;20172;-71
2023/08/21 04:24:42;;;;;;;8.93;8.03;;;24.30;99.90;;;;;;5035924;28;20449;-72
2023/08/21 04:27:08;;;;;;;8.70;7.80;;;24.30;99.90;;;;;;5036162;28;20524;-71
2023/08/21 04:29:35;;;;;;;7.70;7.00;;;24.30;99.90;;;;;;5036017;28;20195;-71
2023/08/21 04:32:01;;;;;;;8.90;8.00;;;24.30;99.90;;;;;;5035943;28;20167;-71
2023/08/21 04:34:26;;;;;;;8.53;7.33;;;24.30;99.90;;;;;;5035467;28;20799;-71
2023/08/21 04:36:52;;;;;;;8.40;7.70;;;24.10;99.90;;;;;;5035671;28;20167;-71
2023/08/21 04:39:18;;;;;;;8.87;8.07;;;24.10;99.90;;;;;;5035849;28;20202;-71
2023/08/21 04:41:44;;;;;;;9.37;8.10;;;24.20;99.90;;;;;;5036176;28;20678;-71
2023/08/21 04:44:09;;;;;;;8.53;7.83;;;24.20;99.90;;;;;;5035464;28;20326;-72
2023/08/21 04:46:35;;;;;;;9.60;8.20;;;24.20;99.90;;;;;;5035348;28;20250;-72
2023/08/21 04:49:00;;;;;;;9.13;8.07;;;24.10;99.90;;;;;;5035394;28;20171;-71
2023/08/21 04:51:26;;;;;;;7.93;7.23;;;24.20;99.90;;;;;;5034877;28;20175;-72
2023/08/21 04:53:51;;;;;;;9.10;8.17;;;24.00;99.90;;;;;;5035891;28;20563;-72
2023/08/21 04:56:17;;;;;;;8.47;6.73;;;24.00;99.90;;;;;;5035544;28;20266;-72
2023/08/21 04:58:43;;;;;;;9.57;8.07;;;24.10;99.90;;;;;;5035308;28;20159;-71
2023/08/21 05:01:08;;;;;;;7.63;6.93;;;24.10;99.90;;;;;;5035383;28;20187;-71
2023/08/21 05:03:34;;;;;;;10.90;9.57;;;24.10;99.90;;;;;;5035154;28;20175;-72
2023/08/21 05:06:00;;;;;;;8.97;8.00;;;24.00;99.90;;;;;;5034545;28;20188;-71
2023/08/21 05:08:26;;;;;;;8.40;7.60;;;24.10;99.90;;;;;;5035394;28;20780;-72
2023/08/21 05:10:58;;;;;;;8.17;7.37;;;24.20;99.90;;;;;;5034858;28;20225;-70
2023/08/21 05:13:25;;;;;;;8.23;7.43;;;24.20;99.90;;;;;;5035025;28;20459;-71
2023/08/21 05:15:54;;;;;;;8.73;7.83;;;24.20;99.90;;;;;;5035171;28;20418;-70
2023/08/21 05:18:21;;;;;;;10.70;8.40;;;24.30;99.90;;;;;;5035097;28;20407;-70
2023/08/21 05:20:48;;;;;;;7.77;7.17;;;24.40;99.90;;;;;;5032952;28;20536;-69
2023/08/21 05:23:13;;;;;;;7.60;6.90;;;24.40;99.90;;;;;;5034615;28;20409;-70
2023/08/21 05:25:39;;;;;;;8.90;8.00;;;24.50;99.90;;;;;;5034114;28;20454;-70
2023/08/21 05:28:05;;;;;;;8.43;7.47;;;24.50;99.90;;;;;;5034445;28;20245;-71
2023/08/21 05:30:31;;;;;;;8.13;7.43;;;24.60;99.90;;;;;;5034242;28;20206;-71
2023/08/21 05:32:56;;;;;;;8.83;8.03;;;24.60;99.90;;;;;;5034864;28;20831;-71
2023/08/21 05:35:22;;;;;;;8.93;8.00;;;24.60;99.90;;;;;;5034090;28;20265;-71
2023/08/21 05:37:47;;;;;;;8.67;7.87;;;24.70;99.90;;;;;;5034169;28;20218;-70
2023/08/21 05:40:13;;;;;;;8.87;8.03;;;24.70;99.90;;;;;;5034266;28;20274;-71
2023/08/21 05:42:39;;;;;;;8.83;7.93;;;24.80;99.90;;;;;;5034562;28;20222;-71
2023/08/21 05:45:05;;;;;;;7.97;7.33;;;24.90;99.90;;;;;;5034515;28;20182;-72
2023/08/21 05:47:31;;;;;;;8.80;8.10;;;24.90;99.90;;;;;;5034271;28;20183;-70
2023/08/21 05:49:57;;;;;;;8.70;7.90;;;25.00;99.90;;;;;;5033158;28;20477;-72
2023/08/21 05:52:23;;;;;;;9.17;8.37;;;25.00;99.90;;;;;;5034029;28;20175;-70
2023/08/21 05:54:48;;;;;;;8.10;7.40;;;25.10;99.90;;;;;;5033539;28;20281;-71
2023/08/21 05:57:14;;;;;;;8.47;7.67;;;25.20;99.90;;;;;;5034094;28;20479;-72
2023/08/21 05:59:45;;;;;;;9.20;8.30;;;25.20;99.90;;;;;;5033930;28;20186;-72
2023/08/21 06:02:11;;;;;;;11.20;7.93;;;25.30;99.90;;;;;;5034389;28;20207;-71
2023/08/21 06:04:39;;;;;;;9.07;8.27;;;25.40;99.90;;;;;;5033721;28;20422;-70
2023/08/21 06:07:05;;;;;;;13.30;9.00;;;25.60;99.90;;;;;;5033435;28;20410;-72
2023/08/21 06:09:33;;;;;;;8.03;7.37;;;25.70;99.90;;;;;;5033682;28;20464;-71
2023/08/21 06:11:59;;;;;;;11.30;9.03;;;25.80;99.90;;;;;;5033666;28;20630;-71
2023/08/21 06:14:28;;;;;;;8.30;7.60;;;25.90;99.90;;;;;;5033664;28;20804;-72
2023/08/21 06:16:59;;;;;;;9.40;8.40;;;26.00;99.90;;;;;;5033593;28;20417;-71
2023/08/21 06:19:24;;;;;;;8.50;7.70;;;26.10;99.90;;;;;;5033485;28;20476;-71
2023/08/21 06:21:50;;;;;;;8.17;7.27;;;26.20;99.90;;;;;;5033099;28;20406;-70
2023/08/21 06:24:16;;;;;;;8.50;7.80;;;26.30;99.90;;;;;;5033565;28;20657;-70
2023/08/21 06:26:42;;;;;;;8.33;7.53;;;26.40;99.90;;;;;;5033623;28;20600;-71
2023/08/21 06:29:07;;;;;;;9.20;8.20;;;26.50;99.90;;;;;;5033494;28;20164;-71
2023/08/21 06:31:33;;;;;;;8.90;8.00;;;26.60;99.90;;;;;;5033762;28;20176;-72
2023/08/21 06:33:58;;;;;;;8.53;7.80;;;26.70;99.90;;;;;;5033453;28;20250;-72
2023/08/21 06:36:24;;;;;;;8.10;7.40;;;26.80;99.90;;;;;;5032856;28;20198;-71
2023/08/21 06:38:49;;;;;;;8.53;7.73;;;26.90;99.90;;;;;;5033604;28;20160;-71
2023/08/21 06:41:15;;;;;;;8.90;6.90;;;27.00;99.90;;;;;;5033639;28;20198;-71
2023/08/21 06:43:41;;;;;;;8.10;7.50;;;27.00;99.90;;;;;;5032975;28;20642;-71
2023/08/21 06:46:07;;;;;;;8.67;7.90;;;27.10;99.90;;;;;;5033451;28;20557;-72
2023/08/21 06:48:34;;;;;;;7.47;6.77;;;27.10;99.90;;;;;;5033343;28;20418;-73
2023/08/21 06:50:59;;;;;;;7.73;7.03;;;27.20;99.90;;;;;;5033077;28;20199;-70
2023/08/21 06:53:25;;;;;;;9.90;7.57;;;27.30;99.90;;;;;;5033616;28;20492;-70
2023/08/21 06:55:50;;;;;;;9.37;7.50;;;27.40;99.90;;;;;;5033263;28;20195;-71
2023/08/21 06:58:16;;;;;;;8.00;7.20;;;27.50;99.90;;;;;;5031807;28;20171;-71
2023/08/21 07:00:42;;;;;;;6.90;6.30;;;27.60;99.90;;;;;;5033187;28;20674;-71
2023/08/21 07:03:07;;;;;;;6.63;6.03;;;27.70;99.90;;;;;;5033034;28;20164;-72
2023/08/21 07:05:34;;;;;;;9.00;8.20;;;27.70;99.90;;;;;;5032755;28;20241;-71
2023/08/21 07:07:59;;;;;;;10.63;7.70;;;27.70;99.90;;;;;;5032943;28;20164;-72
2023/08/21 07:10:25;;;;;;;9.30;7.73;;;27.70;99.90;;;;;;5033179;28;20413;-72
2023/08/21 07:12:51;;;;;;;9.37;8.43;;;27.70;99.90;;;;;;5033361;28;20201;-74
2023/08/21 07:15:16;;;;;;;10.70;8.57;;;27.50;99.90;;;;;;5031515;28;20240;-73
2023/08/21 07:17:42;;;;;;;8.43;7.73;;;27.60;99.90;;;;;;5032778;28;20175;-71
2023/08/21 07:20:08;;;;;;;8.97;8.17;;;27.30;99.90;;;;;;5032089;28;20187;-71
2023/08/21 07:22:33;;;;;;;9.67;8.70;;;26.90;99.90;;;;;;5032679;28;20593;-72
2023/08/21 07:25:03;;;;;;;8.90;8.03;;;26.80;99.90;;;;;;5032920;28;20203;-72
2023/08/21 07:27:29;;;;;;;9.43;8.53;;;26.80;99.90;;;;;;5031489;28;20657;-73
2023/08/21 07:29:55;;;;;;;9.83;8.27;;;27.00;99.90;;;;;;5032833;28;20517;-73
2023/08/21 07:32:20;;;;;;;9.93;8.57;;;26.90;99.90;;;;;;5033003;28;20442;-72
2023/08/21 07:34:46;;;;;;;8.50;7.80;;;26.90;99.90;;;;;;5032980;28;20199;-72
2023/08/21 07:37:12;;;;;;;9.67;8.37;;;26.90;99.90;;;;;;5032819;28;20199;-72
2023/08/21 07:39:37;;;;;;;10.43;9.10;;;26.80;99.90;;;;;;5034279;28;20187;-72
2023/08/21 07:42:03;;;;;;;9.43;8.43;;;26.90;99.90;;;;;;5033222;28;20710;-73
2023/08/21 07:44:29;;;;;;;9.43;8.47;;;27.00;99.90;;;;;;5033074;28;20701;-72
2023/08/21 07:46:54;;;;;;;8.63;7.73;;;26.90;99.90;;;;;;5033056;28;20176;-73
2023/08/21 07:49:20;;;;;;;10.40;8.90;;;27.20;99.90;;;;;;5033111;28;20175;-70
2023/08/21 07:51:46;;;;;;;11.50;7.60;;;27.50;99.90;;;;;;5032407;28;20302;-72
2023/08/21 07:54:12;;;;;;;8.37;7.60;;;27.60;99.90;;;;;;5034319;28;20542;-72
2023/08/21 07:56:39;;;;;;;10.03;9.13;;;27.40;99.90;;;;;;5037061;28;20414;-71
2023/08/21 07:59:05;;;;;;;9.93;8.90;;;27.70;99.90;;;;;;5036168;28;20163;-69
2023/08/21 08:01:30;;;;;;;11.17;9.87;;;28.10;99.90;;;;;;5037086;28;20775;-71
2023/08/21 08:03:56;;;;;;;10.43;8.23;;;27.80;99.90;;;;;;5037132;28;20632;-71
2023/08/21 08:06:21;;;;;;;10.90;9.90;;;27.90;99.90;;;;;;5036399;28;20278;-72
2023/08/21 08:08:47;;;;;;;10.00;8.90;;;28.00;99.90;;;;;;5037895;28;20168;-73
2023/08/21 08:11:12;;;;;;;10.27;9.13;;;28.20;99.90;;;;;;5037283;28;20172;-72
2023/08/21 08:13:38;;;;;;;11.87;10.67;;;28.20;99.90;;;;;;5037128;28;20167;-72
2023/08/21 08:16:04;;;;;;;10.80;9.77;;;28.30;99.90;;;;;;5036789;28;20195;-72
2023/08/21 08:18:29;;;;;;;10.77;9.77;;;28.70;99.90;;;;;;5037088;28;20179;-74
2023/08/21 08:20:55;;;;;;;9.57;8.60;;;28.70;99.90;;;;;;5035564;28;20198;-72
2023/08/21 08:23:23;;;;;;;7.93;7.33;;;28.80;99.90;;;;;;5037351;28;20163;-72
2023/08/21 08:25:48;;;;;;;8.70;7.90;;;28.90;99.90;;;;;;5058896;23;20284;-72
2023/08/21 08:28:14;;;;;;;9.70;8.80;;;29.20;99.90;;;;;;5035758;28;20908;-71
2023/08/21 08:30:39;;;;;;;11.83;8.73;;;29.00;99.90;;;;;;5035825;28;20205;-71
2023/08/21 08:33:05;;;;;;;9.50;8.40;;;29.00;99.90;;;;;;5035966;28;20170;-72
2023/08/21 08:35:30;;;;;;;9.60;8.70;;;28.80;99.90;;;;;;5035440;28;20662;-71
2023/08/21 08:37:56;;;;;;;9.30;8.50;;;28.80;99.90;;;;;;5035659;28;20171;-71
2023/08/21 08:40:21;;;;;;;10.03;8.80;;;29.00;99.90;;;;;;5036284;28;20198;-71
2023/08/21 08:42:47;;;;;;;8.97;8.00;;;29.20;99.90;;;;;;5035649;28;20170;-72
2023/08/21 08:45:14;;;;;;;9.73;8.83;;;29.50;99.90;;;;;;5035586;28;20187;-71
2023/08/21 08:47:40;;;;;;;9.50;8.03;;;29.70;99.90;;;;;;5035482;28;20163;-71
2023/08/21 08:50:08;;;;;;;13.13;9.20;;;29.70;99.90;;;;;;5035059;28;20808;-71
2023/08/21 08:52:38;;;;;;;9.27;8.43;;;29.60;99.90;;;;;;5035448;28;20497;-71
2023/08/21 08:55:06;;;;;;;11.07;9.70;;;29.80;99.90;;;;;;5035306;28;20444;-72
2023/08/21 08:57:32;;;;;;;10.40;9.33;;;29.80;99.90;;;;;;5035626;28;20410;-72
2023/08/21 08:59:58;;;;;;;10.60;9.60;;;29.80;99.90;;;;;;5035242;28;20444;-70
2023/08/21 09:02:26;;;;;;;9.90;8.90;;;29.90;99.90;;;;;;5035322;28;20229;-72
2023/08/21 09:04:52;;;;;;;12.17;8.90;;;29.90;99.90;;;;;;5034892;28;20819;-72
2023/08/21 09:07:19;;;;;;;9.47;8.53;;;30.20;99.90;;;;;;5034053;28;20408;-72
2023/08/21 09:09:49;;;;;;;10.27;9.27;;;30.20;99.90;;;;;;5035419;28;20259;-71
2023/08/21 09:12:15;;;;;;;9.47;8.67;;;30.00;99.90;;;;;;5035493;28;20417;-72
2023/08/21 09:14:41;;;;;;;10.77;9.10;;;30.00;99.90;;;;;;5035089;28;20409;-71
2023/08/21 09:17:07;;;;;;;10.80;8.20;;;30.00;99.90;;;;;;5035120;28;20941;-72
2023/08/21 09:19:33;;;;;;;9.93;8.93;;;29.90;99.90;;;;;;5034337;28;20450;-72
2023/08/21 09:22:07;;;;;;;9.27;8.17;;;30.00;99.90;;;;;;5035112;28;20243;-71
2023/08/21 09:24:32;;;;;;;8.93;8.17;;;29.90;99.90;;;;;;5034887;28;20152;-72
2023/08/21 09:27:00;;;;;;;8.73;7.93;;;30.10;99.90;;;;;;5034263;28;20418;-72
2023/08/21 09:29:25;;;;;;;9.37;8.57;;;29.80;99.90;;;;;;5035180;28;20163;-71
2023/08/21 09:31:55;;;;;;;8.77;7.97;;;29.90;99.90;;;;;;5034864;28;20777;-71
2023/08/21 09:34:21;;;;;;;8.97;8.10;;;30.30;99.90;;;;;;5034560;28;20171;-71
2023/08/21 09:36:54;;;;;;;10.83;8.20;;;30.50;99.90;;;;;;5032925;28;20480;-71
2023/08/21 09:39:20;;;;;;;8.50;7.70;;;30.30;99.90;;;;;;5034901;28;20178;-71
2023/08/21 09:41:56;;;;;;;8.00;7.30;;;30.40;99.90;;;;;;5034190;28;20414;-71
2023/08/21 09:44:21;;;;;;;9.27;8.37;;;30.80;99.90;;;;;;5034789;28;20213;-72
2023/08/21 09:46:49;;;;;;;9.90;7.70;;;30.80;99.90;;;;;;5034414;28;20414;-73
2023/08/21 09:49:17;;;;;;;8.23;7.43;;;30.60;99.90;;;;;;5034757;28;20594;-72
2023/08/21 09:51:44;;;;;;;8.43;7.63;;;30.60;99.90;;;;;;5034152;28;20446;-73
2023/08/21 09:54:11;;;;;;;11.43;7.00;;;30.60;99.90;;;;;;5034564;28;20402;-72
2023/08/21 09:56:37;;;;;;;7.30;6.60;;;30.70;99.90;;;;;;5034386;28;20433;-72
2023/08/21 09:59:03;;;;;;;8.53;6.13;;;30.90;99.90;;;;;;5033995;28;20410;-72
2023/08/21 10:01:32;;;;;;;8.00;6.03;;;30.70;99.90;;;;;;5034286;28;20418;-72
2023/08/21 10:04:00;;;;;;;6.47;5.87;;;30.90;99.90;;;;;;5034515;28;20402;-72
2023/08/21 10:06:26;;;;;;;7.63;7.03;;;31.00;99.90;;;;;;5033623;28;20423;-71
2023/08/21 10:08:54;;;;;;;7.20;6.40;;;31.10;99.90;;;;;;5034422;28;20402;-71
2023/08/21 10:11:21;;;;;;;7.43;6.30;;;31.00;99.90;;;;;;5033703;28;20182;-72
2023/08/21 10:13:47;;;;;;;7.20;6.50;;;31.00;99.90;;;;;;5034214;28;20406;-70
2023/08/21 10:16:13;;;;;;;8.30;7.30;;;30.80;99.90;;;;;;5033703;28;20925;-72
2023/08/21 10:18:45;;;;;;;7.57;6.53;;;31.00;99.90;;;;;;5033974;28;20172;-71
2023/08/21 10:21:15;;;;;;;7.47;6.77;;;31.10;99.90;;;;;;5033555;28;20488;-71
2023/08/21 10:23:42;;;;;;;7.87;7.17;;;31.10;99.90;;;;;;5034077;28;20486;-72
2023/08/21 10:26:09;;;;;;;7.43;6.10;;;30.90;99.90;;;;;;5033488;28;20469;-70
2023/08/21 10:28:53;;;;;;;7.20;6.30;;;31.10;99.90;;;;;;5034237;28;20615;-72
2023/08/21 10:31:28;;;;;;;7.50;6.20;;;31.60;99.90;;;;;;5033997;28;20383;-71
2023/08/21 10:33:54;;;;;;;6.77;5.10;;;31.90;99.90;;;;;;5033940;28;20489;-71
2023/08/21 10:36:42;;;;;;;8.17;6.70;;;31.90;99.90;;;;;;5033063;28;21012;-71
2023/08/21 10:39:17;;;;;;;9.43;6.40;;;31.90;99.90;;;;;;5033811;28;20183;-72
2023/08/21 10:41:56;;;;;;;7.50;6.70;;;32.00;99.90;;;;;;5033634;28;20410;-72
2023/08/21 10:44:42;;;;;;;7.30;6.70;;;32.10;99.90;;;;;;5033751;28;20398;-72
2023/08/21 10:47:31;;;;;;;9.03;6.80;;;32.20;99.90;;;;;;5033661;28;20498;-72
2023/08/21 10:50:05;;;;;;;7.40;6.67;;;32.20;99.90;;;;;;5031576;28;20417;-71
2023/08/21 10:52:35;;;;;;;7.03;6.40;;;32.40;99.70;;;;;;5033640;28;20451;-72
2023/08/21 10:55:05;;;;;;;6.17;5.40;;;32.60;99.50;;;;;;5033857;28;20439;-71
2023/08/21 10:57:32;;;;;;;7.80;6.20;;;32.70;98.90;;;;;;5032701;28;20437;-72
2023/08/21 11:00:00;;;;;;;8.00;5.90;;;33.00;98.40;;;;;;5033375;28;21063;-71
2023/08/21 11:02:29;;;;;;;7.00;5.30;;;34.10;96.70;;;;;;5033338;28;20429;-72
2023/08/21 11:04:55;;;;;;;5.60;5.10;;;35.70;94.40;;;;;;5032882;28;20449;-72
2023/08/21 11:07:21;;;;;;;8.57;6.40;;;36.60;92.40;;;;;;5033228;28;20406;-72
2023/08/21 11:09:47;;;;;;;11.23;6.60;;;38.30;90.00;;;;;;5033316;28;20420;-73
2023/08/21 11:12:16;;;;;;;7.00;5.70;;;38.70;85.00;;;;;;5033140;28;20202;-70
2023/08/21 11:14:42;;;;;;;7.23;5.33;;;39.10;81.30;;;;;;5033254;28;20406;-72
2023/08/21 11:17:09;;;;;;;6.03;5.20;;;38.70;81.10;;;;;;5033051;28;20421;-73
2023/08/21 11:19:36;;;;;;;6.50;5.87;;;38.50;80.50;;;;;;5031771;28;20203;-71
2023/08/21 11:22:05;;;;;;;6.57;6.00;;;38.40;79.50;;;;;;5033054;28;20808;-72
2023/08/21 11:24:37;;;;;;;5.67;5.03;;;39.10;77.40;;;;;;5032802;28;20413;-72
2023/08/21 11:27:04;;;;;;;6.53;5.23;;;40.00;74.20;;;;;;5033482;28;20513;-71
2023/08/21 11:29:43;;;;;;;6.73;5.50;;;40.90;70.40;;;;;;5032019;28;20402;-71
2023/08/21 11:32:13;;;;;;;5.50;5.10;;;41.30;69.30;;;;;;5032873;28;20429;-71
2023/08/21 11:34:39;;;;;;;6.37;5.70;;;41.90;68.60;;;;;;5032811;28;20432;-72
2023/08/21 11:37:05;;;;;;;7.93;5.50;;;42.30;64.90;;;;;;5032976;28;20459;-72
2023/08/21 11:39:49;;;;;;;6.23;5.73;;;41.10;67.50;;;;;;5032960;28;20461;-72
2023/08/21 11:42:15;;;;;;;5.40;4.90;;;41.50;64.70;;;;;;5033027;28;20385;-71
2023/08/21 11:44:51;;;;;;;7.93;5.90;;;42.00;63.60;;;;;;5032913;28;20772;-72
2023/08/21 11:47:19;;;;;;;6.10;5.47;;;41.60;63.60;;;;;;5032927;28;20826;-71
2023/08/21 11:49:49;;;;;;;6.53;5.83;;;41.80;63.40;;;;;;5031417;28;20443;-71
2023/08/21 11:52:24;;;;;;;5.60;5.20;;;42.10;60.40;;;;;;5032856;28;20409;-72
2023/08/21 11:54:51;;;;;;;5.47;4.87;;;42.30;59.60;;;;;;5031254;28;20407;-72
2023/08/21 11:57:17;;;;;;;5.60;5.20;;;41.30;62.00;;;;;;5032834;28;20892;-70
2023/08/21 11:59:43;;;;;;;5.67;5.17;;;41.50;61.40;;;;;;5032374;28;20457;-71
2023/08/21 12:02:17;;;;;;;6.17;5.67;;;41.60;60.70;;;;;;5032835;28;20531;-72
2023/08/21 12:04:43;;;;;;;7.30;5.57;;;41.80;58.30;;;;;;5031398;28;20173;-72
2023/08/21 12:07:08;;;;;;;5.77;5.17;;;42.20;59.20;;;;;;5031211;28;20402;-72
2023/08/21 12:09:34;;;;;;;5.47;5.07;;;43.50;58.70;;;;;;5032629;28;20246;-72
2023/08/21 12:12:00;;;;;;;8.17;4.70;;;43.40;56.20;;;;;;5032453;28;20169;-72
2023/08/21 12:14:27;;;;;;;6.37;5.40;;;41.60;59.00;;;;;;5032505;28;20178;-72
2023/08/21 12:16:52;;;;;;;6.13;5.50;;;39.80;61.70;;;;;;5032613;28;20201;-72
2023/08/21 12:19:19;;;;;;;6.40;5.80;;;38.10;65.80;;;;;;5032110;28;20900;-72
2023/08/21 12:21:44;;;;;;;12.23;6.20;;;38.40;66.50;;;;;;5032469;28;20167;-71
2023/08/21 12:24:10;;;;;;;6.43;5.80;;;38.30;65.70;;;;;;5032698;28;20402;-72
2023/08/21 12:26:36;;;;;;;7.30;6.40;;;38.70;66.20;;;;;;5032213;28;20203;-71
2023/08/21 12:29:02;;;;;;;7.43;5.27;;;38.90;65.40;;;;;;5032247;28;20202;-73
2023/08/21 12:31:28;;;;;;;6.03;5.43;;;38.60;66.10;;;;;;5032540;28;20171;-71
2023/08/21 12:33:53;;;;;;;6.10;5.60;;;38.20;66.70;;;;;;5032142;28;20406;-72
2023/08/21 12:36:19;;;;;;;8.47;5.90;;;36.80;69.10;;;;;;5032091;28;20183;-71
2023/08/21 12:38:45;;;;;;;7.47;5.50;;;36.60;72.30;;;;;;5032558;28;20172;-72
2023/08/21 12:41:10;;;;;;;9.73;6.00;;;36.20;71.30;;;;;;5034607;28;20218;-72
2023/08/21 12:43:36;;;;;;;7.90;6.10;;;37.00;69.70;;;;;;5035949;28;20170;-72